createdAt,value
2019-05-28T00:02:04.723Z,11.35
2019-05-28T00:04:34.656Z,11.36
2019-05-28T00:07:05.042Z,11.43
2019-05-28T00:09:34.936Z,11.44
2019-05-28T00:12:04.813Z,11.33
2019-05-28T00:14:34.629Z,11.16
2019-05-28T00:17:04.435Z,11.12
2019-05-28T00:19:34.343Z,11.11
2019-05-28T00:22:04.311Z,11.04
2019-05-28T00:24:34.143Z,11.00
2019-05-28T00:27:03.969Z,10.93
2019-05-28T00:29:33.755Z,10.93
2019-05-28T00:32:03.727Z,10.86
2019-05-28T00:34:33.537Z,10.83
2019-05-28T00:37:03.714Z,10.87
2019-05-28T00:39:33.539Z,10.92
2019-05-28T00:42:03.376Z,11.00
2019-05-28T00:44:33.192Z,11.04
2019-05-28T00:47:02.993Z,11.08
2019-05-28T00:49:32.838Z,11.04
2019-05-28T00:52:02.625Z,11.03
2019-05-28T00:54:32.439Z,11.08
2019-05-28T00:57:02.707Z,11.12
2019-05-28T00:59:33.300Z,11.14
2019-05-28T01:02:03.226Z,11.15
2019-05-28T01:04:33.032Z,11.14
2019-05-28T01:07:02.898Z,11.15
2019-05-28T01:09:32.708Z,11.19
2019-05-28T01:12:02.598Z,11.21
2019-05-28T01:14:32.951Z,11.17
2019-05-28T01:17:02.751Z,11.22
2019-05-28T01:19:32.512Z,11.27
2019-05-28T01:22:02.336Z,11.29
2019-05-28T01:24:32.155Z,11.31
2019-05-28T01:27:01.961Z,11.26
2019-05-28T01:29:31.759Z,11.28
2019-05-28T01:32:01.679Z,11.28
2019-05-28T01:34:31.469Z,11.27
2019-05-28T01:37:01.293Z,11.22
2019-05-28T01:39:31.095Z,11.16
2019-05-28T01:42:00.852Z,11.12
2019-05-28T01:44:30.638Z,11.16
2019-05-28T01:47:00.485Z,11.12
2019-05-28T01:49:30.315Z,11.18
2019-05-28T01:52:00.106Z,11.22
2019-05-28T01:54:29.937Z,11.21
2019-05-28T01:56:59.733Z,11.18
2019-05-28T01:59:29.646Z,11.30
2019-05-28T02:01:59.433Z,11.31
2019-05-28T02:04:29.242Z,11.23
2019-05-28T02:06:59.060Z,11.18
2019-05-28T02:09:28.897Z,11.16
2019-05-28T02:11:58.708Z,11.17
2019-05-28T02:14:28.492Z,11.20
2019-05-28T02:16:58.332Z,11.23
2019-05-28T02:19:28.168Z,11.30
2019-05-28T02:21:57.984Z,11.27
2019-05-28T02:24:27.807Z,11.23
2019-05-28T02:26:57.563Z,11.27
2019-05-28T02:29:27.381Z,11.22
2019-05-28T02:31:57.173Z,11.17
2019-05-28T02:34:26.971Z,11.10
2019-05-28T02:36:56.864Z,11.01
2019-05-28T02:39:26.678Z,10.81
2019-05-28T02:41:56.504Z,10.93
2019-05-28T02:44:26.321Z,10.98
2019-05-28T02:46:56.158Z,10.99
2019-05-28T02:49:25.986Z,10.98
2019-05-28T02:51:55.871Z,10.92
2019-05-28T02:54:25.688Z,10.86
2019-05-28T02:56:56.154Z,10.96
2019-05-28T02:59:26.433Z,10.94
2019-05-28T03:01:57.774Z,10.96
2019-05-28T03:04:28.820Z,10.79
2019-05-28T03:07:01.734Z,10.83
2019-05-28T03:09:32.129Z,10.83
2019-05-28T03:12:02.047Z,10.83
2019-05-28T03:14:31.870Z,10.85
2019-05-28T03:17:04.162Z,10.88
2019-05-28T03:19:34.669Z,10.87
2019-05-28T03:22:04.700Z,10.86
2019-05-28T03:24:34.734Z,10.86
2019-05-28T03:27:04.659Z,10.80
2019-05-28T03:29:34.447Z,10.86
2019-05-28T03:32:08.482Z,10.88
2019-05-28T03:34:35.859Z,10.94
2019-05-28T03:37:05.736Z,10.94
2019-05-28T03:39:37.060Z,10.95
2019-05-28T03:42:06.889Z,10.97
2019-05-28T03:44:36.685Z,10.81
2019-05-28T03:47:06.629Z,10.79
2019-05-28T03:49:36.436Z,10.77
2019-05-28T03:52:06.243Z,10.80
2019-05-28T03:54:36.066Z,10.81
2019-05-28T03:57:05.846Z,10.83
2019-05-28T03:59:36.002Z,10.79
2019-05-28T04:02:22.227Z,10.81
2019-05-28T04:04:37.330Z,10.85
2019-05-28T04:07:07.208Z,10.88
2019-05-28T04:09:37.403Z,10.94
2019-05-28T04:12:07.234Z,10.98
2019-05-28T04:14:37.067Z,11.02
2019-05-28T04:17:06.885Z,11.04
2019-05-28T04:19:36.658Z,11.00
2019-05-28T04:22:06.472Z,10.97
2019-05-28T04:24:36.277Z,10.90
2019-05-28T04:27:06.097Z,10.92
2019-05-28T04:29:35.941Z,10.92
2019-05-28T04:32:05.727Z,10.93
2019-05-28T04:34:35.579Z,10.94
2019-05-28T04:37:05.472Z,10.94
2019-05-28T04:39:35.769Z,10.82
2019-05-28T04:42:05.927Z,10.69
2019-05-28T04:44:36.133Z,10.75
2019-05-28T04:47:08.581Z,10.79
2019-05-28T04:49:37.460Z,10.84
2019-05-28T04:52:07.266Z,10.86
2019-05-28T04:54:37.075Z,10.83
2019-05-28T04:57:06.973Z,10.84
2019-05-28T04:59:36.765Z,10.84
2019-05-28T05:02:06.553Z,10.87
2019-05-28T05:04:36.410Z,10.85
2019-05-28T05:07:06.273Z,10.85
2019-05-28T05:09:36.101Z,10.78
2019-05-28T05:12:05.942Z,10.73
2019-05-28T05:14:35.826Z,10.76
2019-05-28T05:17:05.712Z,10.78
2019-05-28T05:19:35.613Z,10.82
2019-05-28T05:22:05.398Z,10.88
2019-05-28T05:24:35.193Z,10.92
2019-05-28T05:27:05.051Z,10.92
2019-05-28T05:29:34.894Z,10.76
2019-05-28T05:32:05.837Z,10.69
2019-05-28T05:34:35.655Z,10.64
2019-05-28T05:37:05.334Z,10.72
2019-05-28T05:39:35.084Z,10.78
2019-05-28T05:42:05.108Z,10.78
2019-05-28T05:44:34.989Z,10.77
2019-05-28T05:47:04.815Z,10.79
2019-05-28T05:49:34.625Z,10.71
2019-05-28T05:52:04.453Z,10.51
2019-05-28T05:54:34.289Z,10.71
2019-05-28T05:57:04.339Z,10.64
2019-05-28T05:59:34.471Z,10.65
2019-05-28T06:02:04.794Z,10.76
2019-05-28T06:04:34.939Z,10.69
2019-05-28T06:07:05.233Z,10.67
2019-05-28T06:09:35.020Z,10.71
2019-05-28T06:12:04.826Z,10.79
2019-05-28T06:14:37.869Z,10.86
2019-05-28T06:17:06.247Z,10.92
2019-05-28T06:19:36.065Z,10.97
2019-05-28T06:22:05.853Z,11.02
2019-05-28T06:24:35.764Z,11.05
2019-05-28T06:27:05.777Z,11.08
2019-05-28T06:29:35.981Z,11.17
2019-05-28T06:32:05.835Z,11.39
2019-05-28T06:34:35.598Z,11.43
2019-05-28T06:37:05.472Z,11.48
2019-05-28T06:39:35.280Z,11.52
2019-05-28T06:42:05.236Z,11.59
2019-05-28T06:44:35.064Z,11.61
2019-05-28T06:47:04.868Z,11.65
2019-05-28T06:49:34.707Z,11.65
2019-05-28T06:52:04.564Z,11.67
2019-05-28T06:54:34.388Z,11.74
2019-05-28T06:57:21.562Z,11.73
2019-05-28T06:59:35.727Z,11.77
2019-05-28T07:02:05.520Z,11.80
2019-05-28T07:04:35.377Z,11.80
2019-05-28T07:07:05.207Z,11.78
2019-05-28T07:09:35.004Z,11.80
2019-05-28T07:12:04.828Z,11.98
2019-05-28T07:14:34.666Z,12.06
2019-05-28T07:17:04.621Z,12.09
2019-05-28T07:19:34.460Z,12.09
2019-05-28T07:22:04.257Z,12.04
2019-05-28T07:24:34.122Z,12.07
2019-05-28T07:27:04.095Z,12.18
2019-05-28T07:29:34.109Z,12.27
2019-05-28T07:32:04.038Z,12.27
2019-05-28T07:34:33.828Z,12.17
2019-05-28T07:37:03.723Z,11.84
2019-05-28T07:39:33.594Z,11.76
2019-05-28T07:42:03.528Z,11.73
2019-05-28T07:44:33.414Z,11.68
2019-05-28T07:47:03.260Z,11.71
2019-05-28T07:49:33.055Z,11.80
2019-05-28T07:52:02.962Z,11.89
2019-05-28T07:54:33.887Z,11.91
2019-05-28T07:57:03.703Z,11.94
2019-05-28T07:59:33.575Z,11.96
2019-05-28T08:02:03.349Z,11.94
2019-05-28T08:04:46.248Z,11.96
2019-05-28T08:07:05.741Z,12.11
2019-05-28T08:09:35.521Z,12.22
2019-05-28T08:12:05.504Z,12.35
2019-05-28T08:14:35.388Z,12.53
2019-05-28T08:17:05.289Z,12.75
2019-05-28T08:19:35.096Z,12.83
2019-05-28T08:22:04.883Z,12.82
2019-05-28T08:24:35.066Z,12.82
2019-05-28T08:27:04.888Z,12.89
2019-05-28T08:29:34.665Z,13.10
2019-05-28T08:32:04.497Z,13.25
2019-05-28T08:34:34.349Z,13.36
2019-05-28T08:37:06.541Z,13.40
2019-05-28T08:39:35.600Z,13.47
2019-05-28T08:42:05.458Z,13.51
2019-05-28T08:44:35.273Z,13.56
2019-05-28T08:47:05.085Z,13.56
2019-05-28T08:49:34.886Z,13.54
2019-05-28T08:52:04.762Z,13.66
2019-05-28T08:54:34.565Z,13.62
2019-05-28T08:57:04.336Z,13.62
2019-05-28T08:59:34.149Z,13.65
2019-05-28T09:02:03.904Z,13.57
2019-05-28T09:04:33.735Z,13.61
2019-05-28T09:07:03.635Z,13.63
2019-05-28T09:09:33.430Z,13.65
2019-05-28T09:12:03.293Z,13.66
2019-05-28T09:14:54.306Z,13.77
2019-05-28T09:17:05.408Z,13.85
2019-05-28T09:19:35.396Z,13.88
2019-05-28T09:22:05.290Z,13.79
2019-05-28T09:24:35.136Z,13.77
2019-05-28T09:27:04.979Z,13.84
2019-05-28T09:29:34.757Z,13.66
2019-05-28T09:32:04.784Z,13.56
2019-05-28T09:34:34.597Z,13.44
2019-05-28T09:37:04.453Z,13.47
2019-05-28T09:39:34.275Z,13.64
2019-05-28T09:42:04.379Z,13.73
2019-05-28T09:44:34.178Z,13.70
2019-05-28T09:47:03.981Z,13.48
2019-05-28T09:49:33.764Z,13.45
2019-05-28T09:52:03.569Z,13.60
2019-05-28T09:54:33.409Z,13.56
2019-05-28T09:57:03.245Z,13.56
2019-05-28T09:59:41.390Z,13.47
2019-05-28T10:02:04.577Z,13.51
2019-05-28T10:04:48.565Z,13.52
2019-05-28T10:07:05.954Z,13.49
2019-05-28T10:09:35.798Z,13.57
2019-05-28T10:12:05.748Z,13.90
2019-05-28T10:14:35.574Z,14.19
2019-05-28T10:17:05.503Z,14.41
2019-05-28T10:19:35.297Z,14.50
2019-05-28T10:22:05.245Z,14.59
2019-05-28T10:24:35.063Z,14.73
2019-05-28T10:27:04.847Z,14.65
2019-05-28T10:29:34.725Z,14.75
2019-05-28T10:32:04.579Z,14.98
2019-05-28T10:34:34.433Z,15.17
2019-05-28T10:37:04.248Z,15.30
2019-05-28T10:39:34.040Z,15.55
2019-05-28T10:42:03.822Z,15.60
2019-05-28T10:44:33.622Z,15.65
2019-05-28T10:47:03.484Z,15.12
2019-05-28T10:49:33.392Z,15.12
2019-05-28T10:52:03.243Z,15.62
2019-05-28T10:54:33.052Z,15.62
2019-05-28T10:57:02.833Z,15.71
2019-05-28T10:59:32.641Z,15.43
2019-05-28T11:02:02.390Z,15.43
2019-05-28T11:04:32.237Z,15.63
2019-05-28T11:07:02.110Z,15.89
2019-05-28T11:09:32.311Z,15.91
2019-05-28T11:12:02.134Z,16.12
2019-05-28T11:14:31.946Z,16.37
2019-05-28T11:17:01.758Z,16.40
2019-05-28T11:19:31.544Z,16.17
2019-05-28T11:22:01.345Z,16.09
2019-05-28T11:24:31.150Z,16.36
2019-05-28T11:27:00.981Z,16.10
2019-05-28T11:29:30.832Z,16.22
2019-05-28T11:32:00.653Z,16.47
2019-05-28T11:34:30.487Z,16.66
2019-05-28T11:37:09.329Z,16.55
2019-05-28T11:39:31.824Z,16.64
2019-05-28T11:42:01.663Z,16.50
2019-05-28T11:44:31.428Z,16.41
2019-05-28T11:47:01.279Z,16.63
2019-05-28T11:49:31.053Z,16.78
2019-05-28T11:52:00.884Z,16.87
2019-05-28T11:54:30.797Z,17.02
2019-05-28T11:57:00.671Z,16.80
2019-05-28T11:59:30.444Z,16.81
2019-05-28T12:02:00.201Z,16.83
2019-05-28T12:04:30.025Z,16.98
2019-05-28T12:06:59.778Z,16.71
2019-05-28T12:09:29.652Z,16.77
2019-05-28T12:11:59.500Z,16.61
2019-05-28T12:14:29.293Z,16.47
2019-05-28T12:16:59.266Z,16.35
2019-05-28T12:19:29.108Z,16.38
2019-05-28T12:21:58.991Z,16.43
2019-05-28T12:24:29.063Z,16.28
2019-05-28T12:26:59.145Z,16.05
2019-05-28T12:29:29.105Z,15.89
2019-05-28T12:31:59.387Z,15.83
2019-05-28T12:34:29.585Z,15.86
2019-05-28T12:36:59.404Z,15.88
2019-05-28T12:39:29.258Z,15.84
2019-05-28T12:42:03.282Z,15.88
2019-05-28T12:44:41.461Z,15.98
2019-05-28T12:47:02.100Z,16.01
2019-05-28T12:49:31.929Z,16.11
2019-05-28T12:52:01.724Z,16.11
2019-05-28T12:54:31.513Z,16.18
2019-05-28T12:57:01.352Z,16.36
2019-05-28T12:59:31.119Z,16.48
2019-05-28T13:02:00.924Z,16.74
2019-05-28T13:04:30.760Z,17.00
2019-05-28T13:07:00.578Z,17.25
2019-05-28T13:09:30.453Z,17.33
2019-05-28T13:12:00.237Z,17.27
2019-05-28T13:14:30.135Z,17.22
2019-05-28T13:16:59.908Z,17.15
2019-05-28T13:19:29.823Z,17.17
2019-05-28T13:21:59.661Z,17.29
2019-05-28T13:24:29.470Z,17.13
2019-05-28T13:27:17.075Z,17.26
2019-05-28T13:29:30.831Z,17.08
2019-05-28T13:32:00.628Z,17.18
2019-05-28T13:34:30.466Z,17.47
2019-05-28T13:37:00.267Z,17.64
2019-05-28T13:39:30.108Z,17.84
2019-05-28T13:41:59.859Z,17.91
2019-05-28T13:44:29.714Z,17.72
2019-05-28T13:46:59.478Z,17.38
2019-05-28T13:49:29.292Z,17.61
2019-05-28T13:52:11.737Z,17.69
2019-05-28T13:54:30.641Z,17.64
2019-05-28T13:57:00.548Z,17.53
2019-05-28T13:59:30.411Z,17.55
2019-05-28T14:02:00.160Z,17.28
2019-05-28T14:04:29.998Z,17.25
2019-05-28T14:06:59.822Z,17.15
2019-05-28T14:09:29.614Z,17.23
2019-05-28T14:11:59.433Z,17.50
2019-05-28T14:14:29.299Z,17.72
2019-05-28T14:16:59.087Z,17.79
2019-05-28T14:19:29.121Z,17.81
2019-05-28T14:21:58.909Z,17.99
2019-05-28T14:24:28.749Z,18.21
2019-05-28T14:26:58.590Z,18.21
2019-05-28T14:29:28.444Z,18.23
2019-05-28T14:31:58.304Z,18.17
2019-05-28T14:34:28.200Z,18.08
2019-05-28T14:36:58.034Z,17.98
2019-05-28T14:39:40.691Z,17.75
2019-05-28T14:41:59.361Z,17.61
2019-05-28T14:44:29.197Z,17.58
2019-05-28T14:46:59.109Z,17.61
2019-05-28T14:49:29.964Z,17.38
2019-05-28T14:51:59.772Z,17.24
2019-05-28T14:54:29.581Z,17.23
2019-05-28T14:56:59.348Z,17.15
2019-05-28T14:59:29.172Z,17.09
2019-05-28T15:01:58.913Z,16.92
2019-05-28T15:04:28.703Z,16.66
2019-05-28T15:06:58.594Z,16.41
2019-05-28T15:09:28.420Z,16.18
2019-05-28T15:11:58.233Z,15.98
2019-05-28T15:14:28.049Z,15.85
2019-05-28T15:16:57.953Z,15.82
2019-05-28T15:19:27.836Z,15.77
2019-05-28T15:21:57.688Z,15.29
2019-05-28T15:24:27.588Z,15.61
2019-05-28T15:26:57.402Z,15.47
2019-05-28T15:29:27.243Z,15.44
2019-05-28T15:31:57.095Z,15.41
2019-05-28T15:34:26.979Z,15.39
2019-05-28T15:36:56.802Z,15.41
2019-05-28T15:39:38.979Z,15.41
2019-05-28T15:41:58.139Z,15.42
2019-05-28T15:44:28.007Z,15.46
2019-05-28T15:46:57.856Z,15.49
2019-05-28T15:49:27.799Z,15.45
2019-05-28T15:52:07.422Z,15.49
2019-05-28T15:54:28.909Z,15.53
2019-05-28T15:56:58.815Z,15.51
2019-05-28T15:59:28.633Z,15.52
2019-05-28T16:01:58.448Z,15.54
2019-05-28T16:04:28.263Z,15.64
2019-05-28T16:06:59.103Z,15.38
2019-05-28T16:09:28.879Z,15.79
2019-05-28T16:11:58.699Z,15.69
2019-05-28T16:14:28.552Z,15.62
2019-05-28T16:16:58.338Z,15.53
2019-05-28T16:19:28.235Z,15.53
2019-05-28T16:21:57.997Z,15.60
2019-05-28T16:24:27.827Z,15.62
2019-05-28T16:26:57.736Z,15.69
2019-05-28T16:29:27.569Z,15.54
2019-05-28T16:31:57.433Z,15.38
2019-05-28T16:34:27.444Z,15.08
2019-05-28T16:36:57.322Z,15.08
2019-05-28T16:39:27.150Z,14.94
2019-05-28T16:41:56.996Z,14.86
2019-05-28T16:44:26.983Z,14.85
2019-05-28T16:47:14.834Z,14.77
2019-05-28T16:49:28.378Z,14.77
2019-05-28T16:51:58.329Z,14.72
2019-05-28T16:54:28.143Z,14.64
2019-05-28T16:56:57.992Z,14.60
2019-05-28T16:59:28.202Z,14.55
2019-05-28T17:01:58.337Z,14.53
2019-05-28T17:04:28.118Z,14.50
2019-05-28T17:06:59.010Z,14.46
2019-05-28T17:09:29.193Z,14.42
2019-05-28T17:11:59.327Z,14.34
2019-05-28T17:14:29.251Z,14.23
2019-05-28T17:17:02.998Z,14.19
2019-05-28T17:19:33.853Z,14.11
2019-05-28T17:22:04.235Z,14.10
2019-05-28T17:24:36.384Z,14.04
2019-05-28T17:27:06.359Z,14.04
2019-05-28T17:29:37.225Z,14.03
2019-05-28T17:32:07.136Z,14.01
2019-05-28T17:34:37.363Z,13.96
2019-05-28T17:37:07.231Z,13.93
2019-05-28T17:39:37.160Z,13.96
2019-05-28T17:42:07.066Z,13.98
2019-05-28T17:44:47.329Z,13.92
2019-05-28T17:47:18.110Z,13.84
2019-05-28T17:49:50.318Z,13.80
2019-05-28T17:52:21.274Z,13.89
2019-05-28T17:54:56.098Z,13.85
2019-05-28T17:57:28.876Z,13.70
2019-05-28T17:59:59.662Z,13.59
2019-05-28T18:02:31.579Z,13.49
2019-05-28T18:05:02.867Z,13.45
2019-05-28T18:07:32.814Z,13.45
2019-05-28T18:10:03.493Z,13.40
2019-05-28T18:12:33.870Z,13.32
2019-05-28T18:15:05.084Z,13.26
2019-05-28T18:17:34.930Z,13.20
2019-05-28T18:20:07.011Z,13.16
2019-05-28T18:22:55.674Z,13.16
2019-05-28T18:25:34.750Z,13.18
2019-05-28T18:28:10.710Z,13.19
2019-05-28T18:30:40.622Z,13.23
2019-05-28T18:33:10.840Z,13.19
2019-05-28T18:35:42.766Z,13.15
2019-05-28T18:38:30.515Z,13.10
2019-05-28T18:41:00.861Z,13.08
2019-05-28T18:43:30.671Z,13.05
2019-05-28T18:46:04.218Z,13.06
2019-05-28T18:48:38.418Z,13.01
2019-05-28T18:51:05.604Z,12.97
2019-05-28T18:53:35.925Z,12.89
2019-05-28T18:56:17.010Z,12.85
2019-05-28T18:58:38.164Z,12.80
2019-05-28T19:01:10.720Z,12.81
2019-05-28T19:03:41.257Z,12.85
2019-05-28T19:06:12.103Z,12.94
2019-05-28T19:08:44.061Z,13.15
2019-05-28T19:11:14.001Z,13.07
2019-05-28T19:13:47.424Z,12.99
2019-05-28T19:16:17.221Z,12.88
2019-05-28T19:18:47.168Z,12.82
2019-05-28T19:21:17.532Z,12.77
2019-05-28T19:23:52.455Z,12.76
2019-05-28T19:26:28.796Z,12.73
2019-05-28T19:29:02.547Z,12.70
2019-05-28T19:31:34.207Z,12.75
2019-05-28T19:34:07.870Z,12.73
2019-05-28T19:36:45.089Z,12.72
2019-05-28T19:39:16.741Z,12.72
2019-05-28T19:41:54.272Z,12.76
2019-05-28T19:44:29.575Z,12.66
2019-05-28T19:46:59.552Z,12.55
2019-05-28T19:49:29.453Z,12.48
2019-05-28T19:52:02.398Z,12.47
2019-05-28T19:54:34.873Z,12.58
2019-05-28T19:57:05.354Z,12.55
2019-05-28T19:59:35.571Z,12.41
2019-05-28T20:02:13.265Z,12.32
2019-05-28T20:04:45.921Z,12.34
2019-05-28T20:07:16.735Z,12.34
2019-05-28T20:09:47.055Z,12.29
2019-05-28T20:12:17.334Z,12.23
2019-05-28T20:14:48.855Z,12.19
2019-05-28T20:17:19.417Z,12.18
2019-05-28T20:19:54.113Z,12.11
2019-05-28T20:22:24.591Z,12.04
2019-05-28T20:24:54.691Z,12.05
2019-05-28T20:27:28.530Z,12.07
2019-05-28T20:30:01.008Z,12.06
2019-05-28T20:32:30.929Z,12.04
2019-05-28T20:35:03.451Z,12.01
2019-05-28T20:37:36.818Z,12.01
2019-05-28T20:40:10.224Z,11.92
2019-05-28T20:42:40.242Z,11.88
2019-05-28T20:45:13.847Z,11.90
2019-05-28T20:47:44.831Z,11.90
2019-05-28T20:50:18.936Z,11.87
2019-05-28T20:52:50.669Z,11.81
2019-05-28T20:55:22.010Z,11.84
2019-05-28T20:57:53.339Z,11.88
2019-05-28T21:00:24.250Z,11.81
2019-05-28T21:02:53.992Z,11.75
2019-05-28T21:05:26.106Z,11.72
2019-05-28T21:07:56.770Z,11.75
2019-05-28T21:10:28.378Z,11.76
2019-05-28T21:13:00.799Z,11.77
2019-05-28T21:15:30.582Z,11.76
2019-05-28T21:18:00.636Z,11.74
2019-05-28T21:20:32.046Z,11.71
2019-05-28T21:23:03.949Z,11.63
2019-05-28T21:25:33.647Z,11.56
2019-05-28T21:28:07.482Z,11.44
2019-05-28T21:30:37.259Z,11.37
2019-05-28T21:33:09.260Z,11.37
2019-05-28T21:35:39.645Z,11.26
2019-05-28T21:38:09.969Z,11.21
2019-05-28T21:40:42.153Z,11.13
2019-05-28T21:43:14.270Z,11.15
2019-05-28T21:45:44.104Z,11.16
2019-05-28T21:48:13.916Z,11.20
2019-05-28T21:50:44.375Z,11.23
2019-05-28T21:53:15.995Z,11.20
2019-05-28T21:55:46.662Z,11.20
2019-05-28T21:58:18.405Z,11.23
2019-05-28T22:00:54.405Z,11.20
2019-05-28T22:03:24.846Z,11.16
2019-05-28T22:05:57.196Z,11.07
2019-05-28T22:08:29.707Z,11.00
2019-05-28T22:11:01.872Z,10.99
2019-05-28T22:13:31.661Z,11.02
2019-05-28T22:16:02.304Z,10.96
2019-05-28T22:18:32.802Z,10.93
2019-05-28T22:21:04.911Z,10.85
2019-05-28T22:23:37.079Z,10.87
2019-05-28T22:26:07.231Z,10.80
2019-05-28T22:28:39.370Z,10.72
2019-05-28T22:31:09.177Z,10.77
2019-05-28T22:33:42.790Z,10.69
2019-05-28T22:36:15.043Z,10.70
2019-05-28T22:38:47.234Z,10.70
2019-05-28T22:41:19.392Z,10.70
2019-05-28T22:43:50.797Z,10.73
2019-05-28T22:46:23.859Z,10.75
2019-05-28T22:48:53.605Z,10.77
2019-05-28T22:51:25.468Z,10.79
2019-05-28T22:53:57.634Z,10.79
2019-05-28T22:56:28.243Z,10.75
2019-05-28T22:59:00.294Z,10.72
2019-05-28T23:01:31.197Z,10.69
2019-05-28T23:04:03.105Z,10.68
2019-05-28T23:06:32.840Z,10.68
2019-05-28T23:09:04.115Z,10.69
2019-05-28T23:11:34.612Z,10.68
2019-05-28T23:14:06.130Z,10.64
2019-05-28T23:16:37.941Z,10.60
2019-05-28T23:19:08.776Z,10.49
2019-05-28T23:21:41.831Z,10.43
2019-05-28T23:24:12.827Z,10.18
2019-05-28T23:26:43.434Z,10.10
2019-05-28T23:29:14.833Z,10.16
2019-05-28T23:31:49.771Z,10.22
2019-05-28T23:34:21.315Z,10.24
2019-05-28T23:36:54.091Z,10.27
2019-05-28T23:39:24.825Z,10.24
2019-05-28T23:41:56.557Z,10.23
2019-05-28T23:44:27.335Z,10.19
2019-05-28T23:46:58.736Z,10.16
2019-05-28T23:49:30.512Z,10.15
2019-05-28T23:52:00.317Z,10.17
2019-05-28T23:54:31.475Z,10.15
2019-05-28T23:57:06.144Z,10.07
2019-05-28T23:59:38.366Z,10.07
